sensor_id;sensor_type;location;lat;lon;timestamp;P1;durP1;ratioP1;P2;durP2;ratioP2
33553;SDS011;19885;42.208;24.952;2023-05-07T00:01:48;6.77;;;3.90;;
33553;SDS011;19885;42.208;24.952;2023-05-07T00:04:13;5.40;;;3.60;;
33553;SDS011;19885;42.208;24.952;2023-05-07T00:06:39;6.70;;;4.20;;
33553;SDS011;19885;42.208;24.952;2023-05-07T00:09:04;4.70;;;3.70;;
33553;SDS011;19885;42.208;24.952;2023-05-07T00:11:30;5.87;;;3.50;;
33553;SDS011;19885;42.208;24.952;2023-05-07T00:13:56;7.27;;;3.57;;
33553;SDS011;19885;42.208;24.952;2023-05-07T00:16:21;9.03;;;4.07;;
33553;SDS011;19885;42.208;24.952;2023-05-07T00:18:47;6.70;;;3.03;;
33553;SDS011;19885;42.208;24.952;2023-05-07T00:21:12;4.63;;;3.20;;
33553;SDS011;19885;42.208;24.952;2023-05-07T00:23:38;5.47;;;4.03;;
33553;SDS011;19885;42.208;24.952;2023-05-07T00:26:03;9.80;;;3.63;;
33553;SDS011;19885;42.208;24.952;2023-05-07T00:28:29;4.47;;;3.10;;
33553;SDS011;19885;42.208;24.952;2023-05-07T00:30:55;10.37;;;3.97;;
33553;SDS011;19885;42.208;24.952;2023-05-07T00:33:20;5.40;;;3.40;;
33553;SDS011;19885;42.208;24.952;2023-05-07T00:35:47;4.93;;;3.93;;
33553;SDS011;19885;42.208;24.952;2023-05-07T00:38:13;5.97;;;3.60;;
33553;SDS011;19885;42.208;24.952;2023-05-07T00:40:39;5.40;;;3.53;;
33553;SDS011;19885;42.208;24.952;2023-05-07T00:43:04;7.27;;;3.93;;
33553;SDS011;19885;42.208;24.952;2023-05-07T00:45:32;6.03;;;3.37;;
33553;SDS011;19885;42.208;24.952;2023-05-07T00:48:01;6.30;;;3.97;;
33553;SDS011;19885;42.208;24.952;2023-05-07T00:50:27;6.03;;;3.57;;
33553;SDS011;19885;42.208;24.952;2023-05-07T00:52:53;4.07;;;3.17;;
33553;SDS011;19885;42.208;24.952;2023-05-07T00:55:20;4.60;;;3.63;;
33553;SDS011;19885;42.208;24.952;2023-05-07T00:57:46;11.60;;;3.53;;
33553;SDS011;19885;42.208;24.952;2023-05-07T01:00:12;9.23;;;3.73;;
33553;SDS011;19885;42.208;24.952;2023-05-07T01:02:38;8.10;;;3.53;;
33553;SDS011;19885;42.208;24.952;2023-05-07T01:05:04;5.13;;;3.73;;
33553;SDS011;19885;42.208;24.952;2023-05-07T01:07:32;4.67;;;3.60;;
33553;SDS011;19885;42.208;24.952;2023-05-07T01:09:59;4.37;;;3.70;;
33553;SDS011;19885;42.208;24.952;2023-05-07T01:12:26;4.70;;;3.70;;
33553;SDS011;19885;42.208;24.952;2023-05-07T01:14:54;6.37;;;3.80;;
33553;SDS011;19885;42.208;24.952;2023-05-07T01:17:19;4.10;;;3.13;;
33553;SDS011;19885;42.208;24.952;2023-05-07T01:19:45;5.10;;;4.03;;
33553;SDS011;19885;42.208;24.952;2023-05-07T01:22:11;5.03;;;3.93;;
33553;SDS011;19885;42.208;24.952;2023-05-07T01:24:39;6.40;;;3.97;;
33553;SDS011;19885;42.208;24.952;2023-05-07T01:27:05;5.13;;;3.57;;
33553;SDS011;19885;42.208;24.952;2023-05-07T01:29:31;7.07;;;3.60;;
33553;SDS011;19885;42.208;24.952;2023-05-07T01:32:00;6.43;;;3.93;;
33553;SDS011;19885;42.208;24.952;2023-05-07T01:34:27;8.07;;;4.43;;
33553;SDS011;19885;42.208;24.952;2023-05-07T01:36:55;5.70;;;3.67;;
33553;SDS011;19885;42.208;24.952;2023-05-07T01:39:24;6.77;;;3.90;;
33553;SDS011;19885;42.208;24.952;2023-05-07T01:41:51;7.63;;;4.03;;
33553;SDS011;19885;42.208;24.952;2023-05-07T01:44:16;9.70;;;4.73;;
33553;SDS011;19885;42.208;24.952;2023-05-07T01:46:44;5.87;;;4.50;;
33553;SDS011;19885;42.208;24.952;2023-05-07T01:49:10;8.03;;;5.27;;
33553;SDS011;19885;42.208;24.952;2023-05-07T01:51:36;8.77;;;5.23;;
33553;SDS011;19885;42.208;24.952;2023-05-07T01:54:02;7.07;;;5.33;;
33553;SDS011;19885;42.208;24.952;2023-05-07T01:56:27;12.40;;;5.37;;
33553;SDS011;19885;42.208;24.952;2023-05-07T01:58:53;14.43;;;5.63;;
33553;SDS011;19885;42.208;24.952;2023-05-07T02:01:18;5.73;;;5.17;;
33553;SDS011;19885;42.208;24.952;2023-05-07T02:03:44;8.93;;;5.60;;
33553;SDS011;19885;42.208;24.952;2023-05-07T02:06:09;9.27;;;6.63;;
33553;SDS011;19885;42.208;24.952;2023-05-07T02:08:35;8.03;;;5.97;;
33553;SDS011;19885;42.208;24.952;2023-05-07T02:11:00;12.00;;;6.63;;
33553;SDS011;19885;42.208;24.952;2023-05-07T02:13:28;15.03;;;7.87;;
33553;SDS011;19885;42.208;24.952;2023-05-07T02:15:55;11.57;;;6.10;;
33553;SDS011;19885;42.208;24.952;2023-05-07T02:18:20;10.10;;;6.73;;
33553;SDS011;19885;42.208;24.952;2023-05-07T02:20:45;9.47;;;6.10;;
33553;SDS011;19885;42.208;24.952;2023-05-07T02:23:11;9.53;;;6.43;;
33553;SDS011;19885;42.208;24.952;2023-05-07T02:25:37;9.97;;;7.17;;
33553;SDS011;19885;42.208;24.952;2023-05-07T02:28:03;12.30;;;7.37;;
33553;SDS011;19885;42.208;24.952;2023-05-07T02:30:28;12.97;;;8.70;;
33553;SDS011;19885;42.208;24.952;2023-05-07T02:32:54;23.77;;;8.37;;
33553;SDS011;19885;42.208;24.952;2023-05-07T02:35:19;15.80;;;8.83;;
33553;SDS011;19885;42.208;24.952;2023-05-07T02:37:45;11.97;;;8.17;;
33553;SDS011;19885;42.208;24.952;2023-05-07T02:40:10;12.27;;;7.77;;
33553;SDS011;19885;42.208;24.952;2023-05-07T02:42:36;13.57;;;8.20;;
33553;SDS011;19885;42.208;24.952;2023-05-07T02:45:02;14.03;;;7.07;;
33553;SDS011;19885;42.208;24.952;2023-05-07T02:47:27;12.30;;;7.27;;
33553;SDS011;19885;42.208;24.952;2023-05-07T02:49:54;12.40;;;7.00;;
33553;SDS011;19885;42.208;24.952;2023-05-07T02:52:20;9.97;;;6.87;;
33553;SDS011;19885;42.208;24.952;2023-05-07T02:54:45;16.60;;;7.77;;
33553;SDS011;19885;42.208;24.952;2023-05-07T02:57:11;9.67;;;6.73;;
33553;SDS011;19885;42.208;24.952;2023-05-07T02:59:36;10.80;;;7.23;;
33553;SDS011;19885;42.208;24.952;2023-05-07T03:02:01;11.67;;;6.87;;
33553;SDS011;19885;42.208;24.952;2023-05-07T03:04:27;12.57;;;6.37;;
33553;SDS011;19885;42.208;24.952;2023-05-07T03:06:52;10.03;;;6.40;;
33553;SDS011;19885;42.208;24.952;2023-05-07T03:09:18;11.47;;;7.23;;
33553;SDS011;19885;42.208;24.952;2023-05-07T03:11:43;12.20;;;6.13;;
33553;SDS011;19885;42.208;24.952;2023-05-07T03:14:08;13.20;;;6.20;;
33553;SDS011;19885;42.208;24.952;2023-05-07T03:16:34;17.80;;;6.73;;
33553;SDS011;19885;42.208;24.952;2023-05-07T03:19:02;16.53;;;6.37;;
33553;SDS011;19885;42.208;24.952;2023-05-07T03:21:28;11.37;;;5.73;;
33553;SDS011;19885;42.208;24.952;2023-05-07T03:23:53;9.90;;;5.77;;
33553;SDS011;19885;42.208;24.952;2023-05-07T03:26:18;11.13;;;6.13;;
33553;SDS011;19885;42.208;24.952;2023-05-07T03:28:44;11.43;;;6.70;;
33553;SDS011;19885;42.208;24.952;2023-05-07T03:31:10;7.27;;;5.57;;
33553;SDS011;19885;42.208;24.952;2023-05-07T03:33:38;8.27;;;5.77;;
33553;SDS011;19885;42.208;24.952;2023-05-07T03:36:14;13.60;;;6.53;;
33553;SDS011;19885;42.208;24.952;2023-05-07T03:38:40;9.93;;;6.07;;
33553;SDS011;19885;42.208;24.952;2023-05-07T03:41:05;6.27;;;5.63;;
33553;SDS011;19885;42.208;24.952;2023-05-07T03:43:31;7.87;;;5.57;;
33553;SDS011;19885;42.208;24.952;2023-05-07T03:45:56;9.43;;;6.50;;
33553;SDS011;19885;42.208;24.952;2023-05-07T03:48:22;11.57;;;5.93;;
33553;SDS011;19885;42.208;24.952;2023-05-07T03:50:47;10.27;;;6.80;;
33553;SDS011;19885;42.208;24.952;2023-05-07T03:53:13;12.73;;;7.80;;
33553;SDS011;19885;42.208;24.952;2023-05-07T03:55:38;19.80;;;7.87;;
33553;SDS011;19885;42.208;24.952;2023-05-07T03:58:04;16.27;;;7.33;;
33553;SDS011;19885;42.208;24.952;2023-05-07T04:00:30;15.83;;;8.40;;
33553;SDS011;19885;42.208;24.952;2023-05-07T04:02:58;16.43;;;9.10;;
33553;SDS011;19885;42.208;24.952;2023-05-07T04:05:24;11.97;;;8.57;;
33553;SDS011;19885;42.208;24.952;2023-05-07T04:07:50;11.33;;;8.27;;
33553;SDS011;19885;42.208;24.952;2023-05-07T04:10:15;12.33;;;8.90;;
33553;SDS011;19885;42.208;24.952;2023-05-07T04:12:41;14.30;;;8.90;;
33553;SDS011;19885;42.208;24.952;2023-05-07T04:15:06;16.33;;;9.20;;
33553;SDS011;19885;42.208;24.952;2023-05-07T04:17:32;17.97;;;11.80;;
33553;SDS011;19885;42.208;24.952;2023-05-07T04:19:57;17.57;;;11.30;;
33553;SDS011;19885;42.208;24.952;2023-05-07T04:22:23;28.83;;;12.03;;
33553;SDS011;19885;42.208;24.952;2023-05-07T04:24:48;12.33;;;10.23;;
33553;SDS011;19885;42.208;24.952;2023-05-07T04:27:14;16.93;;;10.73;;
33553;SDS011;19885;42.208;24.952;2023-05-07T04:29:39;16.47;;;10.50;;
33553;SDS011;19885;42.208;24.952;2023-05-07T04:32:07;15.13;;;10.73;;
33553;SDS011;19885;42.208;24.952;2023-05-07T04:34:36;14.90;;;10.03;;
33553;SDS011;19885;42.208;24.952;2023-05-07T04:37:01;13.57;;;9.33;;
33553;SDS011;19885;42.208;24.952;2023-05-07T04:39:27;18.27;;;10.10;;
33553;SDS011;19885;42.208;24.952;2023-05-07T04:41:52;16.47;;;9.97;;
33553;SDS011;19885;42.208;24.952;2023-05-07T04:44:20;17.93;;;10.03;;
33553;SDS011;19885;42.208;24.952;2023-05-07T04:46:46;12.60;;;8.30;;
33553;SDS011;19885;42.208;24.952;2023-05-07T04:49:13;12.93;;;8.50;;
33553;SDS011;19885;42.208;24.952;2023-05-07T04:51:39;11.27;;;8.60;;
33553;SDS011;19885;42.208;24.952;2023-05-07T04:54:07;13.33;;;8.73;;
33553;SDS011;19885;42.208;24.952;2023-05-07T04:56:33;11.70;;;8.57;;
33553;SDS011;19885;42.208;24.952;2023-05-07T04:58:58;12.73;;;8.30;;
33553;SDS011;19885;42.208;24.952;2023-05-07T05:01:24;8.63;;;7.73;;
33553;SDS011;19885;42.208;24.952;2023-05-07T05:03:49;10.10;;;7.70;;
33553;SDS011;19885;42.208;24.952;2023-05-07T05:06:15;12.37;;;7.23;;
33553;SDS011;19885;42.208;24.952;2023-05-07T05:08:40;11.43;;;7.00;;
33553;SDS011;19885;42.208;24.952;2023-05-07T05:11:05;14.47;;;7.57;;
33553;SDS011;19885;42.208;24.952;2023-05-07T05:13:31;13.07;;;8.20;;
33553;SDS011;19885;42.208;24.952;2023-05-07T05:15:56;12.40;;;7.00;;
33553;SDS011;19885;42.208;24.952;2023-05-07T05:18:22;10.87;;;7.27;;
33553;SDS011;19885;42.208;24.952;2023-05-07T05:20:47;8.03;;;6.23;;
33553;SDS011;19885;42.208;24.952;2023-05-07T05:23:13;15.57;;;7.80;;
33553;SDS011;19885;42.208;24.952;2023-05-07T05:25:38;9.73;;;5.93;;
33553;SDS011;19885;42.208;24.952;2023-05-07T05:28:05;8.70;;;6.50;;
33553;SDS011;19885;42.208;24.952;2023-05-07T05:30:30;8.87;;;6.67;;
33553;SDS011;19885;42.208;24.952;2023-05-07T05:32:56;6.07;;;5.47;;
33553;SDS011;19885;42.208;24.952;2023-05-07T05:35:21;10.93;;;5.67;;
33553;SDS011;19885;42.208;24.952;2023-05-07T05:37:46;9.00;;;6.57;;
33553;SDS011;19885;42.208;24.952;2023-05-07T05:40:13;11.87;;;6.93;;
33553;SDS011;19885;42.208;24.952;2023-05-07T05:42:38;8.53;;;5.30;;
33553;SDS011;19885;42.208;24.952;2023-05-07T05:45:04;7.83;;;5.50;;
33553;SDS011;19885;42.208;24.952;2023-05-07T05:47:30;6.73;;;6.10;;
33553;SDS011;19885;42.208;24.952;2023-05-07T05:49:55;9.40;;;5.90;;
33553;SDS011;19885;42.208;24.952;2023-05-07T05:52:21;8.33;;;5.50;;
33553;SDS011;19885;42.208;24.952;2023-05-07T05:54:48;7.53;;;5.03;;
33553;SDS011;19885;42.208;24.952;2023-05-07T05:57:14;6.77;;;5.43;;
33553;SDS011;19885;42.208;24.952;2023-05-07T05:59:39;7.50;;;5.20;;
33553;SDS011;19885;42.208;24.952;2023-05-07T06:02:05;7.67;;;5.43;;
33553;SDS011;19885;42.208;24.952;2023-05-07T06:04:31;7.80;;;5.13;;
33553;SDS011;19885;42.208;24.952;2023-05-07T06:06:57;5.87;;;4.90;;
33553;SDS011;19885;42.208;24.952;2023-05-07T06:09:22;8.70;;;4.63;;
33553;SDS011;19885;42.208;24.952;2023-05-07T06:11:48;6.60;;;4.93;;
33553;SDS011;19885;42.208;24.952;2023-05-07T06:14:13;6.77;;;4.50;;
33553;SDS011;19885;42.208;24.952;2023-05-07T06:16:39;4.20;;;3.80;;
33553;SDS011;19885;42.208;24.952;2023-05-07T06:19:04;7.90;;;5.40;;
33553;SDS011;19885;42.208;24.952;2023-05-07T06:21:30;6.20;;;4.83;;
33553;SDS011;19885;42.208;24.952;2023-05-07T06:23:55;14.70;;;6.00;;
33553;SDS011;19885;42.208;24.952;2023-05-07T06:26:21;7.90;;;4.13;;
33553;SDS011;19885;42.208;24.952;2023-05-07T06:28:46;6.90;;;4.30;;
33553;SDS011;19885;42.208;24.952;2023-05-07T06:31:13;7.77;;;4.50;;
33553;SDS011;19885;42.208;24.952;2023-05-07T06:33:40;6.23;;;4.40;;
33553;SDS011;19885;42.208;24.952;2023-05-07T06:36:07;6.57;;;4.30;;
33553;SDS011;19885;42.208;24.952;2023-05-07T06:38:33;6.43;;;4.60;;
33553;SDS011;19885;42.208;24.952;2023-05-07T06:40:58;5.97;;;3.60;;
33553;SDS011;19885;42.208;24.952;2023-05-07T06:43:23;10.13;;;4.23;;
33553;SDS011;19885;42.208;24.952;2023-05-07T06:45:49;4.23;;;3.67;;
33553;SDS011;19885;42.208;24.952;2023-05-07T06:48:14;7.27;;;3.33;;
33553;SDS011;19885;42.208;24.952;2023-05-07T06:50:41;5.80;;;3.20;;
33553;SDS011;19885;42.208;24.952;2023-05-07T06:53:07;8.77;;;3.10;;
33553;SDS011;19885;42.208;24.952;2023-05-07T06:55:32;8.77;;;3.70;;
33553;SDS011;19885;42.208;24.952;2023-05-07T06:57:58;7.73;;;3.53;;
33553;SDS011;19885;42.208;24.952;2023-05-07T07:00:26;4.57;;;3.83;;
33553;SDS011;19885;42.208;24.952;2023-05-07T07:02:52;8.07;;;3.73;;
33553;SDS011;19885;42.208;24.952;2023-05-07T07:05:18;4.90;;;3.43;;
33553;SDS011;19885;42.208;24.952;2023-05-07T07:07:44;10.47;;;3.07;;
33553;SDS011;19885;42.208;24.952;2023-05-07T07:10:09;4.23;;;3.63;;
33553;SDS011;19885;42.208;24.952;2023-05-07T07:12:35;6.57;;;3.87;;
33553;SDS011;19885;42.208;24.952;2023-05-07T07:15:00;6.23;;;3.97;;
33553;SDS011;19885;42.208;24.952;2023-05-07T07:17:25;5.47;;;3.57;;
33553;SDS011;19885;42.208;24.952;2023-05-07T07:19:51;4.07;;;3.50;;
33553;SDS011;19885;42.208;24.952;2023-05-07T07:22:16;5.77;;;3.47;;
33553;SDS011;19885;42.208;24.952;2023-05-07T07:24:42;7.97;;;3.60;;
33553;SDS011;19885;42.208;24.952;2023-05-07T07:27:07;7.87;;;3.77;;
33553;SDS011;19885;42.208;24.952;2023-05-07T07:29:33;6.93;;;3.73;;
33553;SDS011;19885;42.208;24.952;2023-05-07T07:31:58;10.10;;;4.57;;
33553;SDS011;19885;42.208;24.952;2023-05-07T07:34:23;6.40;;;3.70;;
33553;SDS011;19885;42.208;24.952;2023-05-07T07:36:49;12.20;;;4.53;;
33553;SDS011;19885;42.208;24.952;2023-05-07T07:39:14;8.33;;;5.33;;
33553;SDS011;19885;42.208;24.952;2023-05-07T07:41:40;9.00;;;5.37;;
33553;SDS011;19885;42.208;24.952;2023-05-07T07:44:05;10.10;;;4.70;;
33553;SDS011;19885;42.208;24.952;2023-05-07T07:46:32;8.23;;;5.40;;
33553;SDS011;19885;42.208;24.952;2023-05-07T07:48:58;8.07;;;5.33;;
33553;SDS011;19885;42.208;24.952;2023-05-07T07:51:24;11.07;;;5.33;;
33553;SDS011;19885;42.208;24.952;2023-05-07T07:53:51;9.07;;;4.90;;
33553;SDS011;19885;42.208;24.952;2023-05-07T07:56:16;9.80;;;3.73;;
33553;SDS011;19885;42.208;24.952;2023-05-07T07:58:42;4.93;;;3.90;;
33553;SDS011;19885;42.208;24.952;2023-05-07T08:01:07;15.87;;;7.40;;
33553;SDS011;19885;42.208;24.952;2023-05-07T08:03:33;15.87;;;7.07;;
33553;SDS011;19885;42.208;24.952;2023-05-07T08:05:58;17.17;;;6.50;;
33553;SDS011;19885;42.208;24.952;2023-05-07T08:08:24;13.57;;;5.87;;
33553;SDS011;19885;42.208;24.952;2023-05-07T08:10:49;9.93;;;4.87;;
33553;SDS011;19885;42.208;24.952;2023-05-07T08:13:15;8.40;;;5.87;;
33553;SDS011;19885;42.208;24.952;2023-05-07T08:15:41;9.60;;;5.07;;
33553;SDS011;19885;42.208;24.952;2023-05-07T08:18:06;11.13;;;6.90;;
33553;SDS011;19885;42.208;24.952;2023-05-07T08:20:32;16.70;;;8.57;;
33553;SDS011;19885;42.208;24.952;2023-05-07T08:22:58;23.30;;;8.43;;
33553;SDS011;19885;42.208;24.952;2023-05-07T08:25:24;16.17;;;7.83;;
33553;SDS011;19885;42.208;24.952;2023-05-07T08:27:49;12.90;;;7.30;;
33553;SDS011;19885;42.208;24.952;2023-05-07T08:30:15;16.63;;;8.93;;
33553;SDS011;19885;42.208;24.952;2023-05-07T08:32:40;19.03;;;9.43;;
33553;SDS011;19885;42.208;24.952;2023-05-07T08:35:06;18.67;;;9.90;;
33553;SDS011;19885;42.208;24.952;2023-05-07T08:37:31;21.10;;;6.90;;
33553;SDS011;19885;42.208;24.952;2023-05-07T08:39:57;16.60;;;4.53;;
33553;SDS011;19885;42.208;24.952;2023-05-07T08:42:23;9.93;;;5.50;;
33553;SDS011;19885;42.208;24.952;2023-05-07T08:44:50;5.10;;;3.80;;
33553;SDS011;19885;42.208;24.952;2023-05-07T08:47:18;7.03;;;4.83;;
33553;SDS011;19885;42.208;24.952;2023-05-07T08:49:45;6.47;;;3.20;;
33553;SDS011;19885;42.208;24.952;2023-05-07T08:52:11;4.60;;;3.17;;
33553;SDS011;19885;42.208;24.952;2023-05-07T08:54:37;3.27;;;2.63;;
33553;SDS011;19885;42.208;24.952;2023-05-07T08:57:03;5.50;;;2.70;;
33553;SDS011;19885;42.208;24.952;2023-05-07T08:59:29;4.90;;;3.20;;
33553;SDS011;19885;42.208;24.952;2023-05-07T09:01:55;2.40;;;2.13;;
33553;SDS011;19885;42.208;24.952;2023-05-07T09:04:20;3.03;;;2.13;;
33553;SDS011;19885;42.208;24.952;2023-05-07T09:06:46;3.00;;;2.10;;
33553;SDS011;19885;42.208;24.952;2023-05-07T09:09:16;2.67;;;2.27;;
33553;SDS011;19885;42.208;24.952;2023-05-07T09:11:45;3.97;;;2.00;;
33553;SDS011;19885;42.208;24.952;2023-05-07T09:14:10;16.10;;;3.10;;
33553;SDS011;19885;42.208;24.952;2023-05-07T09:16:36;6.15;;;2.17;;
33553;SDS011;19885;42.208;24.952;2023-05-07T09:19:01;2.40;;;2.20;;
33553;SDS011;19885;42.208;24.952;2023-05-07T09:21:27;2.13;;;1.70;;
33553;SDS011;19885;42.208;24.952;2023-05-07T09:23:53;4.22;;;2.08;;
33553;SDS011;19885;42.208;24.952;2023-05-07T09:26:23;5.60;;;2.30;;
33553;SDS011;19885;42.208;24.952;2023-05-07T09:28:50;4.30;;;2.50;;
33553;SDS011;19885;42.208;24.952;2023-05-07T09:31:15;5.00;;;2.00;;
33553;SDS011;19885;42.208;24.952;2023-05-07T09:33:41;5.25;;;2.10;;
33553;SDS011;19885;42.208;24.952;2023-05-07T09:36:07;9.82;;;3.03;;
33553;SDS011;19885;42.208;24.952;2023-05-07T09:38:34;2.88;;;2.15;;
33553;SDS011;19885;42.208;24.952;2023-05-07T09:41:04;2.88;;;1.90;;
33553;SDS011;19885;42.208;24.952;2023-05-07T09:43:31;2.85;;;2.22;;
33553;SDS011;19885;42.208;24.952;2023-05-07T09:46:01;2.65;;;1.65;;
33553;SDS011;19885;42.208;24.952;2023-05-07T09:48:28;6.47;;;1.83;;
33553;SDS011;19885;42.208;24.952;2023-05-07T09:50:55;4.57;;;1.88;;
33553;SDS011;19885;42.208;24.952;2023-05-07T09:53:24;3.15;;;1.83;;
33553;SDS011;19885;42.208;24.952;2023-05-07T09:55:51;4.47;;;2.03;;
33553;SDS011;19885;42.208;24.952;2023-05-07T09:58:17;5.05;;;1.95;;
33553;SDS011;19885;42.208;24.952;2023-05-07T10:00:44;3.92;;;2.15;;
33553;SDS011;19885;42.208;24.952;2023-05-07T10:03:10;2.55;;;2.13;;
33553;SDS011;19885;42.208;24.952;2023-05-07T10:05:37;4.47;;;2.25;;
33553;SDS011;19885;42.208;24.952;2023-05-07T10:08:03;2.58;;;1.85;;
33553;SDS011;19885;42.208;24.952;2023-05-07T10:10:30;3.97;;;2.72;;
33553;SDS011;19885;42.208;24.952;2023-05-07T10:12:57;7.45;;;3.35;;
33553;SDS011;19885;42.208;24.952;2023-05-07T10:15:23;4.63;;;2.55;;
33553;SDS011;19885;42.208;24.952;2023-05-07T10:17:50;6.68;;;2.53;;
33553;SDS011;19885;42.208;24.952;2023-05-07T10:20:18;1.95;;;1.73;;
33553;SDS011;19885;42.208;24.952;2023-05-07T10:22:45;2.45;;;2.20;;
33553;SDS011;19885;42.208;24.952;2023-05-07T10:25:18;3.67;;;2.33;;
33553;SDS011;19885;42.208;24.952;2023-05-07T10:27:48;4.38;;;2.25;;
33553;SDS011;19885;42.208;24.952;2023-05-07T10:33:01;5.30;;;2.15;;
33553;SDS011;19885;42.208;24.952;2023-05-07T10:35:31;2.65;;;2.25;;
33553;SDS011;19885;42.208;24.952;2023-05-07T10:38:03;3.70;;;1.95;;
33553;SDS011;19885;42.208;24.952;2023-05-07T10:40:29;6.18;;;1.45;;
33553;SDS011;19885;42.208;24.952;2023-05-07T10:43:02;6.85;;;2.28;;
33553;SDS011;19885;42.208;24.952;2023-05-07T10:45:32;1.73;;;1.63;;
33553;SDS011;19885;42.208;24.952;2023-05-07T10:48:11;2.58;;;1.80;;
33553;SDS011;19885;42.208;24.952;2023-05-07T10:50:38;3.80;;;1.70;;
33553;SDS011;19885;42.208;24.952;2023-05-07T10:55:46;3.03;;;2.15;;
33553;SDS011;19885;42.208;24.952;2023-05-07T10:58:26;3.28;;;1.88;;
33553;SDS011;19885;42.208;24.952;2023-05-07T11:01:00;2.25;;;1.70;;
33553;SDS011;19885;42.208;24.952;2023-05-07T11:03:27;3.75;;;2.30;;
33553;SDS011;19885;42.208;24.952;2023-05-07T11:06:35;3.85;;;1.65;;
33553;SDS011;19885;42.208;24.952;2023-05-07T11:08:56;2.50;;;1.83;;
33553;SDS011;19885;42.208;24.952;2023-05-07T11:15:02;3.55;;;1.85;;
33553;SDS011;19885;42.208;24.952;2023-05-07T11:17:06;2.10;;;1.73;;
33553;SDS011;19885;42.208;24.952;2023-05-07T11:19:51;6.65;;;2.20;;
33553;SDS011;19885;42.208;24.952;2023-05-07T11:22:50;2.42;;;1.80;;
33553;SDS011;19885;42.208;24.952;2023-05-07T11:25:09;3.00;;;1.70;;
33553;SDS011;19885;42.208;24.952;2023-05-07T11:27:36;2.15;;;1.85;;
33553;SDS011;19885;42.208;24.952;2023-05-07T11:30:01;5.32;;;1.95;;
33553;SDS011;19885;42.208;24.952;2023-05-07T11:32:28;2.53;;;1.88;;
33553;SDS011;19885;42.208;24.952;2023-05-07T11:34:55;4.25;;;1.58;;
33553;SDS011;19885;42.208;24.952;2023-05-07T11:37:22;5.05;;;1.80;;
33553;SDS011;19885;42.208;24.952;2023-05-07T11:39:48;3.30;;;2.00;;
33553;SDS011;19885;42.208;24.952;2023-05-07T11:42:29;1.95;;;1.73;;
33553;SDS011;19885;42.208;24.952;2023-05-07T11:44:58;1.75;;;1.35;;
33553;SDS011;19885;42.208;24.952;2023-05-07T11:47:24;3.33;;;1.88;;
33553;SDS011;19885;42.208;24.952;2023-05-07T11:49:53;4.28;;;2.00;;
33553;SDS011;19885;42.208;24.952;2023-05-07T11:52:20;3.38;;;1.83;;
33553;SDS011;19885;42.208;24.952;2023-05-07T11:54:54;1.42;;;1.20;;
33553;SDS011;19885;42.208;24.952;2023-05-07T11:57:21;3.60;;;1.85;;
33553;SDS011;19885;42.208;24.952;2023-05-07T11:59:47;2.00;;;1.80;;
33553;SDS011;19885;42.208;24.952;2023-05-07T12:02:17;4.13;;;1.52;;
33553;SDS011;19885;42.208;24.952;2023-05-07T12:04:43;4.25;;;1.83;;
33553;SDS011;19885;42.208;24.952;2023-05-07T12:07:12;3.55;;;2.00;;
33553;SDS011;19885;42.208;24.952;2023-05-07T12:09:38;1.38;;;1.27;;
33553;SDS011;19885;42.208;24.952;2023-05-07T12:12:05;3.70;;;1.80;;
33553;SDS011;19885;42.208;24.952;2023-05-07T12:14:30;2.70;;;1.40;;
33553;SDS011;19885;42.208;24.952;2023-05-07T12:16:57;2.60;;;1.95;;
33553;SDS011;19885;42.208;24.952;2023-05-07T12:19:24;3.53;;;1.35;;
33553;SDS011;19885;42.208;24.952;2023-05-07T12:21:50;2.38;;;1.95;;
33553;SDS011;19885;42.208;24.952;2023-05-07T12:24:16;2.75;;;1.40;;
33553;SDS011;19885;42.208;24.952;2023-05-07T12:26:41;4.20;;;1.70;;
33553;SDS011;19885;42.208;24.952;2023-05-07T12:29:08;2.55;;;1.50;;
33553;SDS011;19885;42.208;24.952;2023-05-07T12:31:33;3.72;;;1.58;;
33553;SDS011;19885;42.208;24.952;2023-05-07T12:33:59;2.33;;;1.48;;
33553;SDS011;19885;42.208;24.952;2023-05-07T12:36:25;2.67;;;1.60;;
33553;SDS011;19885;42.208;24.952;2023-05-07T12:38:50;2.70;;;1.90;;
33553;SDS011;19885;42.208;24.952;2023-05-07T12:41:16;2.83;;;1.52;;
33553;SDS011;19885;42.208;24.952;2023-05-07T12:43:46;3.25;;;1.67;;
33553;SDS011;19885;42.208;24.952;2023-05-07T12:46:11;2.33;;;1.67;;
33553;SDS011;19885;42.208;24.952;2023-05-07T12:48:44;1.83;;;1.55;;
33553;SDS011;19885;42.208;24.952;2023-05-07T12:51:11;1.90;;;1.38;;
33553;SDS011;19885;42.208;24.952;2023-05-07T12:53:41;1.77;;;1.52;;
33553;SDS011;19885;42.208;24.952;2023-05-07T12:56:07;3.47;;;1.67;;
33553;SDS011;19885;42.208;24.952;2023-05-07T12:58:33;2.63;;;1.40;;
33553;SDS011;19885;42.208;24.952;2023-05-07T13:01:01;4.57;;;1.77;;
33553;SDS011;19885;42.208;24.952;2023-05-07T13:03:30;11.65;;;1.98;;
33553;SDS011;19885;42.208;24.952;2023-05-07T13:06:03;5.10;;;1.73;;
33553;SDS011;19885;42.208;24.952;2023-05-07T13:10:57;2.13;;;1.67;;
33553;SDS011;19885;42.208;24.952;2023-05-07T13:13:24;2.65;;;1.58;;
33553;SDS011;19885;42.208;24.952;2023-05-07T13:15:50;2.97;;;1.40;;
33553;SDS011;19885;42.208;24.952;2023-05-07T13:18:16;2.47;;;1.30;;
33553;SDS011;19885;42.208;24.952;2023-05-07T13:20:42;1.75;;;1.38;;
33553;SDS011;19885;42.208;24.952;2023-05-07T13:23:08;5.15;;;1.73;;
33553;SDS011;19885;42.208;24.952;2023-05-07T13:25:33;5.57;;;1.33;;
33553;SDS011;19885;42.208;24.952;2023-05-07T13:27:59;3.13;;;1.65;;
33553;SDS011;19885;42.208;24.952;2023-05-07T13:30:25;2.08;;;1.48;;
33553;SDS011;19885;42.208;24.952;2023-05-07T13:32:51;2.30;;;1.88;;
33553;SDS011;19885;42.208;24.952;2023-05-07T13:35:17;2.88;;;1.30;;
33553;SDS011;19885;42.208;24.952;2023-05-07T13:37:42;2.75;;;1.58;;
33553;SDS011;19885;42.208;24.952;2023-05-07T13:40:08;3.08;;;1.52;;
33553;SDS011;19885;42.208;24.952;2023-05-07T13:42:34;2.33;;;1.73;;
33553;SDS011;19885;42.208;24.952;2023-05-07T13:44:59;1.67;;;1.33;;
33553;SDS011;19885;42.208;24.952;2023-05-07T13:47:25;1.38;;;1.17;;
33553;SDS011;19885;42.208;24.952;2023-05-07T13:49:51;4.05;;;1.33;;
33553;SDS011;19885;42.208;24.952;2023-05-07T13:52:17;3.10;;;1.00;;
33553;SDS011;19885;42.208;24.952;2023-05-07T13:54:42;3.85;;;1.45;;
33553;SDS011;19885;42.208;24.952;2023-05-07T13:57:08;1.83;;;1.40;;
33553;SDS011;19885;42.208;24.952;2023-05-07T13:59:33;2.05;;;1.20;;
33553;SDS011;19885;42.208;24.952;2023-05-07T14:01:59;3.80;;;1.20;;
33553;SDS011;19885;42.208;24.952;2023-05-07T14:04:25;1.20;;;1.08;;
33553;SDS011;19885;42.208;24.952;2023-05-07T14:06:50;2.58;;;1.38;;
33553;SDS011;19885;42.208;24.952;2023-05-07T14:09:16;4.30;;;2.10;;
33553;SDS011;19885;42.208;24.952;2023-05-07T14:11:41;2.78;;;1.52;;
33553;SDS011;19885;42.208;24.952;2023-05-07T14:14:07;1.20;;;1.05;;
33553;SDS011;19885;42.208;24.952;2023-05-07T14:16:32;4.38;;;1.63;;
33553;SDS011;19885;42.208;24.952;2023-05-07T14:18:58;1.52;;;1.10;;
33553;SDS011;19885;42.208;24.952;2023-05-07T14:21:23;4.40;;;1.48;;
33553;SDS011;19885;42.208;24.952;2023-05-07T14:23:49;5.80;;;1.20;;
33553;SDS011;19885;42.208;24.952;2023-05-07T14:26:14;1.70;;;1.27;;
33553;SDS011;19885;42.208;24.952;2023-05-07T14:28:39;2.35;;;1.55;;
33553;SDS011;19885;42.208;24.952;2023-05-07T14:31:06;5.25;;;1.58;;
33553;SDS011;19885;42.208;24.952;2023-05-07T14:33:31;3.70;;;1.02;;
33553;SDS011;19885;42.208;24.952;2023-05-07T14:35:57;3.47;;;1.65;;
33553;SDS011;19885;42.208;24.952;2023-05-07T14:38:22;1.70;;;1.60;;